Kenseh, Arkansas
Current Conditions -  °F | °C
As of 7:56 AM on Monday 22 Dec 2014 (Local Time) from KSRC Reporting Station
Overcast Overcast  
Wind Chill: 45°   Ceiling: 500
Heat Index: 49°   Visibility: 8mi
Dew Point: 48°   Wind: 9mph
Humidity: 97%   Direction: 150°SSE
Pressure: 29.76"   Gusts: NA
Location:  35.2119°N, 91.6651°W
Report Text: KSRC 221356Z AUTO 15008KT 8SM OVC005 09/09 A2976 RMK AO2 SLP085 T00940089 TSNO
Loading
Personal Weather Stations






























Interactive Weather Map New forecast layout! Learn more

10-Day Weather Forecast

Advertisements
Track Severe Weather on mobile